Terminal Aerodrome Forecast
Issued by NWS Shreveport, LA

Home | Current Version | Previous Version | Text Only | Print | Product List | Glossary On
Versions: 1 2 3 4 5 6 7 8 9 10 11 12 13 14 15
000
FTUS44 KSHV 181100
TAFGGG
TAF
KGGG 181132Z 1812/1912 00000KT P6SM BKN070
     FM181500 02006KT P6SM SCT070
     FM181800 03007KT P6SM FEW040
     FM190100 VRB03KT P6SM SKC=

USA.gov is the U.S. government's official web portal to all federal, state and local government web resources and services.